createdAt,value
2019-03-19T00:00:40.067Z,99.90
2019-03-19T00:03:09.220Z,99.90
2019-03-19T00:05:38.382Z,99.90
2019-03-19T00:08:07.584Z,99.90
2019-03-19T00:10:36.707Z,99.90
2019-03-19T00:13:05.954Z,99.90
2019-03-19T00:15:35.163Z,99.90
2019-03-19T00:18:04.305Z,99.90
2019-03-19T00:20:33.384Z,99.90
2019-03-19T00:23:02.531Z,99.90
2019-03-19T00:25:31.659Z,99.90
2019-03-19T00:28:00.913Z,99.90
2019-03-19T00:30:30.166Z,99.90
2019-03-19T00:32:59.468Z,99.90
2019-03-19T00:35:28.578Z,99.90
2019-03-19T00:37:57.790Z,99.90
2019-03-19T00:40:26.946Z,99.90
2019-03-19T00:42:56.128Z,99.90
2019-03-19T00:45:25.490Z,99.90
2019-03-19T00:47:54.628Z,99.90
2019-03-19T00:50:23.833Z,99.90
2019-03-19T00:52:53.001Z,99.90
2019-03-19T00:55:22.126Z,99.90
2019-03-19T01:00:50.767Z,99.90
2019-03-19T01:03:20.018Z,99.90
2019-03-19T01:05:49.138Z,99.90
2019-03-19T01:08:18.320Z,99.90
2019-03-19T01:10:47.552Z,99.90
2019-03-19T01:13:16.752Z,99.90
2019-03-19T01:15:45.958Z,99.90
2019-03-19T01:18:15.100Z,99.90
2019-03-19T01:20:44.324Z,99.90
2019-03-19T01:23:13.506Z,99.90
2019-03-19T01:25:54.694Z,99.90
2019-03-19T01:28:13.547Z,99.90
2019-03-19T01:30:42.673Z,99.90
2019-03-19T01:33:11.850Z,99.90
2019-03-19T01:35:41.067Z,99.90
2019-03-19T01:38:10.203Z,99.90
2019-03-19T01:40:39.344Z,99.90
2019-03-19T01:43:08.465Z,99.90
2019-03-19T01:45:37.617Z,99.90
2019-03-19T01:48:06.785Z,99.90
2019-03-19T01:50:35.975Z,99.90
2019-03-19T01:53:05.263Z,99.90
2019-03-19T01:55:34.413Z,99.90
2019-03-19T01:58:03.610Z,99.90
2019-03-19T02:00:32.774Z,99.90
2019-03-19T02:03:01.992Z,99.90
2019-03-19T02:05:31.204Z,99.90
2019-03-19T02:08:00.429Z,99.90
2019-03-19T02:10:29.652Z,99.90
2019-03-19T02:13:07.357Z,99.90
2019-03-19T02:15:36.545Z,99.90
2019-03-19T02:18:05.723Z,99.90
2019-03-19T02:20:35.339Z,99.90
2019-03-19T02:23:04.835Z,99.90
2019-03-19T02:25:34.077Z,99.90
2019-03-19T02:28:03.283Z,99.90
2019-03-19T02:30:32.439Z,99.90
2019-03-19T02:33:01.697Z,99.90
2019-03-19T02:35:30.872Z,99.90
2019-03-19T02:38:00.078Z,99.90
2019-03-19T02:40:29.253Z,99.90
2019-03-19T02:42:58.930Z,99.90
2019-03-19T02:45:28.137Z,99.90
2019-03-19T02:47:57.190Z,99.90
2019-03-19T02:50:26.504Z,99.90
2019-03-19T02:52:55.689Z,99.90
2019-03-19T02:55:24.932Z,99.90
2019-03-19T02:57:54.075Z,99.90
2019-03-19T03:00:23.323Z,99.90
2019-03-19T03:02:52.605Z,99.90
2019-03-19T03:05:22.090Z,99.90
2019-03-19T03:07:51.236Z,99.90
2019-03-19T03:10:20.441Z,99.90
2019-03-19T03:12:49.679Z,99.90
2019-03-19T03:15:18.861Z,99.90
2019-03-19T03:17:48.131Z,99.90
2019-03-19T03:20:17.619Z,99.90
2019-03-19T03:22:46.918Z,99.90
2019-03-19T03:25:16.140Z,99.90
2019-03-19T03:27:45.399Z,99.90
2019-03-19T03:30:15.011Z,99.90
2019-03-19T03:32:44.183Z,99.90
2019-03-19T03:35:13.525Z,99.90
2019-03-19T03:37:42.699Z,99.90
2019-03-19T03:40:12.806Z,99.90
2019-03-19T03:42:43.168Z,99.90
2019-03-19T03:45:13.013Z,99.90
2019-03-19T03:47:42.211Z,99.90
2019-03-19T03:50:11.378Z,99.90
2019-03-19T03:52:40.541Z,99.90
2019-03-19T03:55:09.939Z,99.90
2019-03-19T03:57:39.239Z,99.90
2019-03-19T04:00:11.001Z,99.90
2019-03-19T04:02:40.232Z,99.90
2019-03-19T04:05:09.516Z,99.90
2019-03-19T04:07:38.882Z,99.90
2019-03-19T04:10:09.444Z,99.90
2019-03-19T04:12:38.749Z,99.90
2019-03-19T04:15:09.121Z,99.90
2019-03-19T04:17:38.281Z,99.90
2019-03-19T04:20:07.624Z,99.90
2019-03-19T04:22:36.901Z,99.90
2019-03-19T04:25:06.967Z,99.90
2019-03-19T04:27:36.123Z,99.90
2019-03-19T04:30:06.689Z,99.90
2019-03-19T04:32:35.895Z,99.90
2019-03-19T04:35:06.156Z,99.90
2019-03-19T04:37:35.333Z,99.90
2019-03-19T04:40:05.173Z,99.90
2019-03-19T04:42:34.319Z,99.90
2019-03-19T04:45:03.729Z,99.90
2019-03-19T04:47:32.935Z,99.90
2019-03-19T04:50:02.158Z,99.90
2019-03-19T04:52:31.259Z,99.90
2019-03-19T04:55:02.085Z,99.90
2019-03-19T04:57:31.393Z,99.90
2019-03-19T05:00:00.669Z,99.90
2019-03-19T05:02:29.878Z,99.90
2019-03-19T05:04:59.249Z,99.90
2019-03-19T05:07:28.399Z,99.90
2019-03-19T05:09:57.590Z,99.90
2019-03-19T05:12:26.831Z,99.90
2019-03-19T05:14:57.533Z,99.90
2019-03-19T05:17:26.744Z,99.90
2019-03-19T05:19:55.993Z,99.90
2019-03-19T05:22:25.203Z,99.90
2019-03-19T05:24:54.371Z,99.90
2019-03-19T05:27:23.515Z,99.90
2019-03-19T05:29:52.657Z,99.90
2019-03-19T05:32:21.813Z,99.90
2019-03-19T05:34:50.949Z,99.90
2019-03-19T05:37:20.105Z,99.90
2019-03-19T05:39:49.345Z,99.90
2019-03-19T05:42:18.463Z,99.90
2019-03-19T05:44:47.650Z,99.90
2019-03-19T05:47:16.920Z,99.90
2019-03-19T05:49:46.157Z,99.90
2019-03-19T05:52:15.365Z,99.90
2019-03-19T05:54:44.573Z,99.90
2019-03-19T05:57:13.764Z,99.90
2019-03-19T05:59:42.976Z,99.90
2019-03-19T06:02:12.212Z,99.90
2019-03-19T06:04:41.429Z,99.90
2019-03-19T06:07:10.680Z,99.90
2019-03-19T06:09:39.944Z,99.90
2019-03-19T06:12:09.161Z,99.90
2019-03-19T06:14:38.426Z,99.90
2019-03-19T06:17:07.592Z,99.90
2019-03-19T06:19:39.200Z,99.90
2019-03-19T06:22:08.512Z,99.90
2019-03-19T06:24:37.716Z,99.90
2019-03-19T06:27:06.852Z,99.90
2019-03-19T06:29:36.047Z,99.90
2019-03-19T06:32:05.220Z,99.90
2019-03-19T06:34:34.412Z,99.90
2019-03-19T06:37:03.745Z,99.90
2019-03-19T06:39:32.898Z,99.90
2019-03-19T06:42:02.315Z,99.90
2019-03-19T06:44:31.515Z,99.90
2019-03-19T06:47:00.795Z,99.90
2019-03-19T06:49:30.031Z,99.90
2019-03-19T06:51:59.352Z,99.90
2019-03-19T06:54:28.581Z,99.90
2019-03-19T06:56:57.827Z,99.90
2019-03-19T06:59:27.159Z,99.90
2019-03-19T07:01:56.318Z,99.90
2019-03-19T07:04:25.608Z,99.90
2019-03-19T07:06:54.867Z,99.90
2019-03-19T07:09:27.161Z,99.90
2019-03-19T07:11:56.340Z,99.90
2019-03-19T07:14:25.623Z,99.90
2019-03-19T07:16:54.877Z,99.90
2019-03-19T07:19:24.163Z,99.90
2019-03-19T07:21:53.433Z,99.90
2019-03-19T07:24:22.704Z,99.90
2019-03-19T07:26:51.971Z,99.90
2019-03-19T07:29:21.255Z,99.90
2019-03-19T07:31:50.482Z,99.90
2019-03-19T07:34:19.677Z,99.90
2019-03-19T07:36:49.125Z,99.90
2019-03-19T07:39:18.370Z,99.90
2019-03-19T07:41:47.600Z,99.90
2019-03-19T07:44:16.765Z,99.90
2019-03-19T07:46:46.177Z,99.90
2019-03-19T07:49:15.495Z,99.90
2019-03-19T07:51:44.715Z,99.90
2019-03-19T07:54:13.966Z,99.90
2019-03-19T07:56:43.217Z,99.90
2019-03-19T07:59:12.548Z,99.90
2019-03-19T08:01:41.808Z,99.90
2019-03-19T08:04:11.795Z,99.90
2019-03-19T08:06:40.968Z,99.90
2019-03-19T08:09:10.280Z,99.90
2019-03-19T08:11:39.536Z,99.90
2019-03-19T08:14:08.761Z,99.90
2019-03-19T08:16:38.004Z,99.90
2019-03-19T08:19:07.263Z,99.90
2019-03-19T08:21:36.493Z,99.90
2019-03-19T08:24:05.719Z,99.90
2019-03-19T08:26:34.890Z,99.90
2019-03-19T08:29:04.160Z,99.90
2019-03-19T08:31:33.422Z,99.90
2019-03-19T08:34:02.779Z,99.90
2019-03-19T08:36:31.954Z,99.90
2019-03-19T08:39:01.201Z,99.90
2019-03-19T08:41:30.605Z,99.90
2019-03-19T08:43:59.953Z,99.90
2019-03-19T08:46:29.539Z,99.90
2019-03-19T08:49:01.069Z,99.90
2019-03-19T08:51:30.342Z,99.80
2019-03-19T08:53:59.623Z,98.10
2019-03-19T08:56:29.003Z,95.40
2019-03-19T08:59:05.526Z,97.40
2019-03-19T09:01:29.273Z,96.90
2019-03-19T09:03:58.567Z,93.90
2019-03-19T09:06:27.757Z,93.60
2019-03-19T09:08:56.951Z,90.10
2019-03-19T09:11:26.124Z,88.50
2019-03-19T09:13:55.289Z,88.60
2019-03-19T09:16:24.567Z,85.10
2019-03-19T09:18:53.714Z,84.30
2019-03-19T09:21:22.927Z,90.00
2019-03-19T09:23:52.120Z,80.30
2019-03-19T09:26:21.271Z,75.20
2019-03-19T09:28:50.415Z,72.60
2019-03-19T09:31:19.794Z,69.00
2019-03-19T09:33:50.694Z,68.60
2019-03-19T09:36:20.348Z,81.70
2019-03-19T09:38:49.544Z,75.80
2019-03-19T09:41:20.983Z,70.10
2019-03-19T09:43:50.209Z,61.30
2019-03-19T09:46:19.491Z,61.10
2019-03-19T09:48:48.808Z,59.60
2019-03-19T09:51:18.082Z,56.30
2019-03-19T09:53:47.311Z,56.40
2019-03-19T09:56:17.080Z,57.10
2019-03-19T09:58:46.275Z,56.20
2019-03-19T10:01:15.603Z,57.60
2019-03-19T10:03:44.982Z,57.00
2019-03-19T10:06:15.218Z,57.00
2019-03-19T10:08:44.498Z,58.10
2019-03-19T10:11:13.758Z,60.80
2019-03-19T10:13:44.332Z,60.00
2019-03-19T10:16:13.675Z,57.50
2019-03-19T10:18:42.877Z,53.20
2019-03-19T10:21:12.218Z,51.70
2019-03-19T10:23:41.744Z,53.10
2019-03-19T10:26:11.931Z,55.20
2019-03-19T10:28:41.516Z,54.60
2019-03-19T10:31:23.129Z,53.10
2019-03-19T10:33:52.472Z,52.30
2019-03-19T10:36:21.860Z,50.50
2019-03-19T10:38:51.126Z,52.20
2019-03-19T10:41:20.416Z,56.80
2019-03-19T10:43:50.030Z,59.30
2019-03-19T10:46:19.193Z,64.50
2019-03-19T10:48:48.650Z,68.80
2019-03-19T10:51:17.775Z,62.00
2019-03-19T10:53:46.906Z,61.40
2019-03-19T10:56:16.153Z,58.70
2019-03-19T10:58:45.458Z,59.40
2019-03-19T11:01:14.806Z,58.50
2019-03-19T11:03:45.837Z,58.20
2019-03-19T11:06:15.223Z,57.80
2019-03-19T11:08:44.409Z,57.60
2019-03-19T11:11:13.625Z,57.20
2019-03-19T11:13:42.855Z,53.80
2019-03-19T11:16:12.077Z,57.40
2019-03-19T11:18:41.367Z,55.50
2019-03-19T11:21:10.695Z,53.50
2019-03-19T11:23:40.100Z,55.20
2019-03-19T11:26:09.382Z,55.00
2019-03-19T11:28:38.682Z,57.90
2019-03-19T11:31:07.870Z,69.40
2019-03-19T11:33:37.118Z,71.90
2019-03-19T11:36:06.635Z,73.60
2019-03-19T11:38:35.822Z,70.70
2019-03-19T11:41:07.170Z,73.00
2019-03-19T11:43:36.347Z,64.60
2019-03-19T11:46:06.394Z,61.90
2019-03-19T11:48:35.661Z,59.60
2019-03-19T11:51:05.515Z,63.90
2019-03-19T11:53:34.855Z,63.60
2019-03-19T11:56:04.303Z,69.30
2019-03-19T11:58:33.461Z,64.40
2019-03-19T12:01:03.037Z,72.90
2019-03-19T12:03:32.362Z,69.20
2019-03-19T12:06:01.611Z,69.40
2019-03-19T12:08:33.698Z,85.30
2019-03-19T12:11:03.223Z,74.50
2019-03-19T12:13:32.464Z,76.00
2019-03-19T12:16:02.660Z,83.70
2019-03-19T12:18:32.040Z,97.60
2019-03-19T12:21:01.296Z,97.30
2019-03-19T12:23:30.735Z,99.70
2019-03-19T12:25:59.991Z,99.90
2019-03-19T12:28:39.201Z,97.60
2019-03-19T12:31:00.342Z,97.50
2019-03-19T12:33:40.123Z,99.90
2019-03-19T12:36:00.587Z,99.90
2019-03-19T12:38:30.194Z,94.50
2019-03-19T12:40:59.468Z,99.90
2019-03-19T12:43:28.714Z,99.90
2019-03-19T12:45:58.062Z,99.90
2019-03-19T12:48:27.724Z,99.90
2019-03-19T12:50:57.256Z,88.20
2019-03-19T12:53:26.490Z,97.20
2019-03-19T12:55:55.672Z,94.20
2019-03-19T12:58:24.871Z,99.90
2019-03-19T13:00:54.130Z,99.90
2019-03-19T13:03:23.315Z,99.90
2019-03-19T13:05:52.584Z,91.20
2019-03-19T13:08:21.800Z,96.20
2019-03-19T13:10:50.982Z,99.90
2019-03-19T13:13:20.215Z,99.90
2019-03-19T13:15:49.584Z,99.90
2019-03-19T13:18:18.910Z,98.60
2019-03-19T13:20:48.130Z,96.30
2019-03-19T13:23:17.446Z,99.90
2019-03-19T13:25:46.806Z,99.90
2019-03-19T13:28:16.070Z,99.90
2019-03-19T13:30:45.639Z,99.90
2019-03-19T13:33:15.021Z,99.90
2019-03-19T13:35:44.185Z,99.90
2019-03-19T13:38:13.369Z,99.90
2019-03-19T13:40:42.737Z,99.90
2019-03-19T13:43:13.509Z,90.90
2019-03-19T13:45:42.751Z,99.90
2019-03-19T13:48:12.068Z,91.30
2019-03-19T13:50:41.436Z,99.40
2019-03-19T13:53:10.748Z,98.80
2019-03-19T13:55:40.043Z,99.90
2019-03-19T13:58:09.286Z,96.20
2019-03-19T14:00:38.584Z,99.90
2019-03-19T14:03:07.797Z,99.90
2019-03-19T14:05:37.002Z,99.90
2019-03-19T14:08:06.400Z,99.90
2019-03-19T14:10:35.659Z,99.90
2019-03-19T14:13:05.004Z,99.90
2019-03-19T14:15:34.945Z,99.90
2019-03-19T14:18:04.470Z,99.90
2019-03-19T14:20:33.637Z,99.90
2019-03-19T14:23:03.009Z,99.90
2019-03-19T14:25:32.318Z,99.90
2019-03-19T14:28:01.717Z,99.90
2019-03-19T14:30:33.230Z,99.90
2019-03-19T14:33:02.844Z,99.90
2019-03-19T14:35:37.540Z,99.90
2019-03-19T14:38:06.990Z,99.90
2019-03-19T14:40:37.078Z,99.90
2019-03-19T14:43:06.877Z,99.90
2019-03-19T14:45:36.613Z,99.90
2019-03-19T14:48:06.324Z,99.90
2019-03-19T14:50:35.677Z,99.90
2019-03-19T14:53:28.415Z,99.90
2019-03-19T14:56:01.522Z,99.90
2019-03-19T14:58:38.833Z,99.90
2019-03-19T15:01:18.753Z,99.90
2019-03-19T15:03:40.255Z,99.90
2019-03-19T15:06:11.906Z,99.90
2019-03-19T15:08:41.115Z,99.90
2019-03-19T15:11:10.440Z,99.90
2019-03-19T15:13:39.716Z,99.90
2019-03-19T15:16:09.178Z,99.90
2019-03-19T15:18:42.219Z,99.90
2019-03-19T15:21:11.651Z,99.90
2019-03-19T15:23:40.805Z,99.90
2019-03-19T15:26:10.106Z,99.90
2019-03-19T15:28:39.701Z,99.90
2019-03-19T15:31:08.891Z,99.90
2019-03-19T15:33:38.602Z,99.90
2019-03-19T15:36:07.781Z,99.90
2019-03-19T15:38:36.911Z,99.90
2019-03-19T15:41:06.081Z,99.90
2019-03-19T15:43:35.199Z,99.90
2019-03-19T15:46:04.306Z,99.90
2019-03-19T15:48:33.744Z,99.90
2019-03-19T15:51:03.009Z,99.90
2019-03-19T15:53:32.315Z,99.90
2019-03-19T15:56:01.581Z,99.90
2019-03-19T15:58:30.813Z,99.90
2019-03-19T16:01:00.061Z,99.90
2019-03-19T16:03:29.403Z,99.90
2019-03-19T16:05:58.660Z,99.90
2019-03-19T16:08:28.023Z,99.90
2019-03-19T16:10:57.394Z,99.90
2019-03-19T16:13:26.593Z,99.90
2019-03-19T16:15:55.818Z,99.90
2019-03-19T16:18:25.137Z,99.90
2019-03-19T16:20:54.378Z,99.90
2019-03-19T16:23:23.551Z,99.90
2019-03-19T16:25:52.747Z,99.90
2019-03-19T16:28:22.006Z,99.90
2019-03-19T16:30:51.153Z,99.90
2019-03-19T16:33:20.366Z,99.90
2019-03-19T16:35:49.673Z,99.90
2019-03-19T16:38:18.851Z,99.90
2019-03-19T16:40:48.126Z,99.90
2019-03-19T16:43:17.377Z,99.90
2019-03-19T16:45:46.591Z,99.90
2019-03-19T16:48:15.790Z,99.90
2019-03-19T16:50:45.289Z,99.90
2019-03-19T16:53:14.469Z,99.90
2019-03-19T16:55:43.683Z,99.90
2019-03-19T16:58:12.849Z,99.90
2019-03-19T17:00:42.208Z,99.90
2019-03-19T17:03:11.503Z,99.90
2019-03-19T17:05:40.690Z,99.90
2019-03-19T17:08:09.918Z,99.90
2019-03-19T17:10:39.240Z,99.90
2019-03-19T17:13:09.557Z,99.90
2019-03-19T17:15:39.544Z,99.90
2019-03-19T17:18:30.350Z,99.90
2019-03-19T17:20:59.593Z,99.90
2019-03-19T17:23:28.750Z,99.90
2019-03-19T17:25:59.515Z,99.90
2019-03-19T17:28:30.431Z,99.90
2019-03-19T17:30:59.935Z,99.90
2019-03-19T17:33:29.890Z,99.90
2019-03-19T17:35:59.145Z,99.90
2019-03-19T17:38:31.524Z,99.90
2019-03-19T17:41:00.857Z,99.90
2019-03-19T17:43:32.777Z,99.90
2019-03-19T17:46:05.098Z,99.90
2019-03-19T17:48:34.391Z,99.90
2019-03-19T17:51:06.034Z,99.90
2019-03-19T17:53:35.303Z,99.90
2019-03-19T17:56:04.739Z,99.90
2019-03-19T17:58:35.686Z,99.90
2019-03-19T18:04:01.082Z,99.90
2019-03-19T18:06:30.342Z,99.90
2019-03-19T18:09:02.138Z,99.90
2019-03-19T18:11:32.429Z,99.90
2019-03-19T18:14:01.680Z,99.90
2019-03-19T18:16:32.642Z,99.90
2019-03-19T18:19:04.791Z,99.90
2019-03-19T18:21:34.726Z,99.90
2019-03-19T18:24:04.106Z,99.90
2019-03-19T18:26:33.850Z,99.90
2019-03-19T18:29:03.080Z,99.90
2019-03-19T18:31:32.258Z,99.90
2019-03-19T18:34:09.972Z,99.90
2019-03-19T18:36:32.700Z,99.90
2019-03-19T18:39:02.237Z,99.90
2019-03-19T18:41:31.528Z,99.90
2019-03-19T18:44:01.973Z,99.90
2019-03-19T18:46:31.687Z,99.90
2019-03-19T18:49:01.405Z,99.90
2019-03-19T18:51:30.576Z,99.90
2019-03-19T18:53:59.932Z,99.90
2019-03-19T18:56:29.177Z,99.90
2019-03-19T18:58:58.444Z,99.90
2019-03-19T19:01:28.120Z,99.90
2019-03-19T19:04:04.653Z,99.90
2019-03-19T19:06:33.855Z,99.90
2019-03-19T19:09:03.868Z,99.90
2019-03-19T19:11:33.194Z,99.90
2019-03-19T19:14:02.536Z,99.90
2019-03-19T19:16:31.837Z,99.90
2019-03-19T19:19:01.637Z,99.90
2019-03-19T19:21:31.690Z,99.90
2019-03-19T19:24:01.806Z,99.90
2019-03-19T19:26:31.330Z,99.90
2019-03-19T19:29:00.590Z,99.90
2019-03-19T19:31:29.886Z,99.90
2019-03-19T19:33:59.182Z,99.90
2019-03-19T19:36:28.920Z,99.90
2019-03-19T19:39:01.393Z,99.90
2019-03-19T19:41:34.720Z,99.90
2019-03-19T19:44:04.078Z,99.90
2019-03-19T19:46:33.427Z,99.90
2019-03-19T19:49:03.142Z,99.90
2019-03-19T19:51:32.656Z,99.90
2019-03-19T19:54:03.091Z,99.90
2019-03-19T19:56:32.429Z,99.90
2019-03-19T19:59:01.884Z,99.90
2019-03-19T20:01:34.161Z,99.90
2019-03-19T20:04:10.353Z,99.90
2019-03-19T20:06:39.595Z,99.90
2019-03-19T20:09:09.597Z,99.90
2019-03-19T20:11:40.108Z,99.90
2019-03-19T20:14:09.406Z,99.90
2019-03-19T20:16:40.193Z,99.90
2019-03-19T20:19:09.648Z,99.90
2019-03-19T20:21:38.919Z,99.90
2019-03-19T20:24:08.195Z,99.90
2019-03-19T20:26:37.450Z,99.90
2019-03-19T20:29:06.808Z,99.90
2019-03-19T20:31:36.162Z,99.90
2019-03-19T20:34:05.404Z,99.90
2019-03-19T20:36:35.120Z,99.90
2019-03-19T20:39:06.534Z,99.90
2019-03-19T20:41:38.675Z,99.90
2019-03-19T20:44:12.414Z,99.90
2019-03-19T20:46:42.791Z,99.90
2019-03-19T20:49:12.014Z,99.90
2019-03-19T20:51:41.217Z,99.90
2019-03-19T20:54:16.318Z,99.90
2019-03-19T20:56:45.582Z,99.90
2019-03-19T20:59:15.995Z,99.90
2019-03-19T21:01:45.475Z,99.90
2019-03-19T21:04:14.593Z,99.90
2019-03-19T21:06:43.815Z,99.90
2019-03-19T21:09:13.118Z,99.90
2019-03-19T21:11:42.388Z,99.90
2019-03-19T21:14:13.762Z,99.90
2019-03-19T21:16:43.109Z,99.90
2019-03-19T21:19:14.594Z,99.90
2019-03-19T21:21:44.420Z,99.90
2019-03-19T21:24:13.814Z,99.90
2019-03-19T21:26:42.934Z,99.90
2019-03-19T21:29:12.176Z,99.90
2019-03-19T21:31:44.624Z,99.90
2019-03-19T21:34:17.369Z,99.90
2019-03-19T21:36:46.993Z,99.90
2019-03-19T21:39:16.270Z,99.90
2019-03-19T21:41:48.611Z,99.90
2019-03-19T21:44:20.991Z,99.90
2019-03-19T21:46:52.705Z,99.90
2019-03-19T21:49:23.023Z,99.90
2019-03-19T21:51:52.180Z,99.90
2019-03-19T21:54:21.820Z,99.90
2019-03-19T21:56:51.094Z,99.90
2019-03-19T21:59:20.393Z,99.90
2019-03-19T22:01:49.584Z,99.90
2019-03-19T22:04:18.870Z,99.90
2019-03-19T22:06:49.690Z,99.90
2019-03-19T22:09:18.834Z,99.90
2019-03-19T22:11:48.112Z,99.90
2019-03-19T22:14:17.342Z,99.90
2019-03-19T22:16:46.677Z,99.90
2019-03-19T22:19:16.001Z,99.90
2019-03-19T22:21:45.308Z,99.90
2019-03-19T22:24:14.556Z,99.90
2019-03-19T22:26:45.162Z,99.90
2019-03-19T22:29:14.374Z,99.90
2019-03-19T22:31:43.590Z,99.90
2019-03-19T22:34:14.246Z,99.90
2019-03-19T22:36:44.177Z,99.90
2019-03-19T22:39:13.429Z,99.90
2019-03-19T22:41:42.667Z,99.90
2019-03-19T22:44:11.897Z,99.90
2019-03-19T22:46:41.191Z,99.90
2019-03-19T22:49:10.547Z,99.90
2019-03-19T22:51:39.805Z,99.90
2019-03-19T22:54:09.424Z,99.90
2019-03-19T22:56:38.675Z,99.90
2019-03-19T22:59:07.795Z,99.90
2019-03-19T23:01:37.013Z,99.90
2019-03-19T23:04:06.293Z,99.90
2019-03-19T23:06:35.507Z,99.90
2019-03-19T23:09:06.715Z,99.90
2019-03-19T23:11:35.921Z,99.90
2019-03-19T23:14:05.162Z,99.90
2019-03-19T23:16:34.292Z,99.90
2019-03-19T23:19:03.454Z,99.90
2019-03-19T23:21:32.772Z,99.90
2019-03-19T23:24:02.029Z,99.90
2019-03-19T23:26:31.183Z,99.90
2019-03-19T23:29:00.529Z,99.90
2019-03-19T23:31:29.713Z,99.90
2019-03-19T23:33:58.852Z,99.90
2019-03-19T23:36:28.127Z,99.90
2019-03-19T23:38:57.267Z,99.90
2019-03-19T23:41:26.468Z,99.90
2019-03-19T23:43:55.730Z,99.90
2019-03-19T23:46:25.589Z,99.90
2019-03-19T23:48:54.979Z,99.90
2019-03-19T23:51:24.431Z,99.90
2019-03-19T23:53:53.607Z,99.90
2019-03-19T23:56:22.956Z,99.90
2019-03-19T23:58:52.280Z,99.90
